Главная страница
METAR-TAF:

METAR-TAF

Аэропорты :

Паланга, Литва

широта: 55-55-12N, долгота: 021-03E, высота над уровнем моря: 10 м

Текущие метеонаблюдения

Эта сводка был подготовлена 11 минут назад, в 02:20 UTC
Ветер 6 Узел от западно-северо-западный, изменяющийся между южный-юго-западный и северно-северо-западный
Температура 3°C
Влажность 87%
Давление 1020 hPa
Видимость 10 км и более

METAR: EYPA 240220Z AUTO 29006KT 210V330 9999 NCD 03/01 Q1020

Время: 04:31 (02:31 UTC)

Прогноз

Эта сводка был подготовлена 3 часа и 26 минут назад, в 23:05 UTC
Прогноз действительный с 24-го 00 UTC до 24-го 24 UTC
Ветер 12 Узел от западный
Видимость: 8000 м
Отдельные облака на высоте 2000 фута
изменения
С 24-го 15 UTC до 24-го 17 UTC
Рассеянная облачность на высоте 1000 фута
временами
С 24-го 17 UTC до 24-го 24 UTC
Рассеянная облачность на высоте 500 фута

TAF: EYPA 232305Z 2400/2424 28012KT 8000 SCT020 BECMG 2415/2417 BKN010 TEMPO 2417/2424 BKN005

Метеонаблюдения и прогнозы для более 4000 аэропортов (сводки METAR и TAF).

Имеющиеся станции представлены на карте желтыми и красными точками.

Чтобы увидеть название станции, наведите на нее мышь.

Затем щелкните, чтобы увидеть метеонаблюдения и метеопрогнозы.

Управление картой: чтобы увеличить масштаб, щелкните зеленые кнопки с черным крестиком; чтобы уменьшить масштаб, щелкните зеленую кнопку с тире; для просмотра соседних карт щелкайте зеленые стрелки.


METAR-TAF: